createdAt,value
2023-03-22T00:04:26.394Z,8.41
2023-03-22T00:09:27.887Z,8.46
2023-03-22T00:14:29.399Z,8.42
2023-03-22T00:19:33.825Z,8.43
2023-03-22T00:24:35.310Z,8.45
2023-03-22T00:29:36.902Z,8.41
2023-03-22T00:34:38.394Z,8.36
2023-03-22T00:39:39.943Z,8.34
2023-03-22T00:44:41.471Z,8.25
2023-03-22T00:49:43.007Z,8.18
2023-03-22T00:54:44.521Z,8.18
2023-03-22T00:59:46.581Z,8.21
2023-03-22T01:04:48.318Z,8.28
2023-03-22T01:09:51.410Z,8.30
2023-03-22T01:14:52.881Z,8.29
2023-03-22T01:19:54.335Z,8.27
2023-03-22T01:24:55.948Z,8.30
2023-03-22T01:29:57.501Z,8.24
2023-03-22T01:34:59.013Z,8.24
2023-03-22T01:40:00.602Z,8.21
2023-03-22T01:45:13.944Z,8.25
2023-03-22T01:50:17.168Z,8.25
2023-03-22T01:55:22.669Z,8.21
2023-03-22T02:00:24.301Z,8.23
2023-03-22T02:05:26.638Z,8.20
2023-03-22T02:10:28.517Z,8.14
2023-03-22T02:15:34.048Z,8.12
2023-03-22T02:21:02.408Z,8.12
2023-03-22T02:26:35.900Z,8.14
2023-03-22T02:32:08.772Z,8.12
2023-03-22T02:37:28.947Z,8.17
2023-03-22T02:42:57.780Z,8.15
2023-03-22T02:48:30.828Z,8.17
2023-03-22T02:53:57.577Z,8.16
2023-03-22T02:59:03.927Z,8.13
2023-03-22T03:04:11.997Z,8.20
2023-03-22T03:09:18.020Z,8.15
2023-03-22T03:14:26.436Z,8.13
2023-03-22T03:19:41.024Z,8.14
2023-03-22T03:24:56.157Z,8.15
2023-03-22T03:30:08.500Z,8.12
2023-03-22T03:35:51.911Z,8.14
2023-03-22T03:41:02.072Z,8.12
2023-03-22T03:46:03.791Z,8.18
2023-03-22T03:51:05.516Z,8.24
2023-03-22T03:56:07.505Z,8.25
2023-03-22T04:01:09.020Z,8.29
2023-03-22T04:06:10.502Z,8.30
2023-03-22T04:11:12.001Z,8.28
2023-03-22T04:16:18.447Z,8.32
2023-03-22T04:21:21.672Z,8.34
2023-03-22T04:26:25.525Z,8.33
2023-03-22T04:31:28.307Z,8.32
2023-03-22T04:36:31.206Z,8.28
2023-03-22T04:41:33.712Z,8.27
2023-03-22T04:46:36.776Z,8.28
2023-03-22T04:51:38.346Z,8.24
2023-03-22T04:56:39.875Z,8.24
2023-03-22T05:01:42.560Z,8.21
2023-03-22T05:06:44.620Z,8.22
2023-03-22T05:11:46.225Z,8.18
2023-03-22T05:16:47.692Z,8.19
2023-03-22T05:21:49.227Z,8.20
2023-03-22T05:26:53.741Z,8.25
2023-03-22T05:31:55.339Z,8.32
2023-03-22T05:36:57.236Z,8.33
2023-03-22T05:41:58.757Z,8.33
2023-03-22T05:47:00.533Z,8.31
2023-03-22T05:52:06.110Z,8.31
2023-03-22T05:57:07.668Z,8.32
2023-03-22T06:02:11.827Z,8.33
2023-03-22T06:07:13.922Z,8.36
2023-03-22T06:12:17.000Z,8.39
2023-03-22T06:17:19.489Z,8.42
2023-03-22T06:22:21.318Z,8.42
2023-03-22T06:27:22.873Z,8.47
2023-03-22T06:32:24.653Z,8.44
2023-03-22T06:37:26.191Z,8.43
2023-03-22T06:42:30.798Z,8.52
2023-03-22T06:47:32.345Z,8.59
2023-03-22T06:52:33.896Z,8.66
2023-03-22T06:57:35.464Z,8.68
2023-03-22T07:02:36.979Z,8.66
2023-03-22T07:07:38.501Z,8.68
2023-03-22T07:12:40.533Z,8.69
2023-03-22T07:17:42.242Z,8.74
2023-03-22T07:22:43.768Z,8.79
2023-03-22T07:27:45.323Z,8.79
2023-03-22T07:32:46.827Z,8.89
2023-03-22T07:37:48.797Z,9.04
2023-03-22T07:42:51.196Z,9.11
2023-03-22T07:47:52.714Z,9.14
2023-03-22T07:52:54.297Z,9.33
2023-03-22T07:57:56.516Z,9.39
2023-03-22T08:02:58.273Z,9.45
2023-03-22T08:07:59.785Z,9.46
2023-03-22T08:13:01.327Z,9.52
2023-03-22T08:18:02.803Z,9.58
2023-03-22T08:23:04.440Z,9.51
2023-03-22T08:28:06.176Z,9.35
2023-03-22T08:33:07.899Z,9.22
2023-03-22T08:38:09.437Z,9.16
2023-03-22T08:43:11.400Z,9.13
2023-03-22T08:48:13.070Z,9.09
2023-03-22T08:53:14.668Z,9.04
2023-03-22T08:58:16.763Z,9.00
2023-03-22T09:03:18.409Z,8.93
2023-03-22T09:08:20.485Z,8.85
2023-03-22T09:13:22.110Z,8.82
2023-03-22T09:18:24.433Z,8.73
2023-03-22T09:23:26.452Z,8.64
2023-03-22T09:28:29.679Z,8.58
2023-03-22T09:33:31.278Z,8.59
2023-03-22T09:38:33.864Z,8.56
2023-03-22T09:43:42.736Z,8.51
2023-03-22T09:48:48.334Z,8.55
2023-03-22T09:53:50.714Z,8.54
2023-03-22T09:59:05.588Z,8.51
2023-03-22T10:04:26.573Z,8.59
2023-03-22T10:09:37.230Z,8.62
2023-03-22T10:14:56.546Z,8.72
2023-03-22T10:20:19.628Z,8.69
2023-03-22T10:25:27.898Z,8.70
2023-03-22T10:30:37.893Z,8.79
2023-03-22T10:35:40.025Z,8.84
2023-03-22T10:40:42.631Z,8.95
2023-03-22T10:45:44.456Z,9.01
2023-03-22T10:50:46.405Z,9.12
2023-03-22T10:55:48.204Z,9.21
2023-03-22T11:01:25.262Z,9.30
2023-03-22T11:06:36.969Z,9.44
2023-03-22T11:11:53.454Z,9.48
2023-03-22T11:17:08.725Z,9.47
2023-03-22T11:22:42.630Z,9.46
2023-03-22T11:27:53.636Z,9.45
2023-03-22T11:33:19.391Z,9.40
2023-03-22T11:38:36.989Z,9.37
2023-03-22T11:43:48.254Z,9.38
2023-03-22T11:48:52.717Z,9.39
2023-03-22T11:54:07.629Z,9.39
2023-03-22T11:59:16.644Z,9.30
2023-03-22T12:04:24.554Z,9.30
2023-03-22T12:09:43.414Z,9.25
2023-03-22T12:15:24.238Z,9.26
2023-03-22T12:20:40.065Z,9.12
2023-03-22T12:25:52.975Z,9.06
2023-03-22T12:30:57.844Z,9.05
2023-03-22T12:36:02.990Z,9.10
2023-03-22T12:41:10.618Z,9.28
2023-03-22T12:46:19.128Z,9.39
2023-03-22T12:51:20.648Z,9.43
2023-03-22T12:56:37.473Z,9.51
2023-03-22T13:01:57.743Z,9.58
2023-03-22T13:07:14.839Z,9.59
2023-03-22T13:12:18.921Z,9.65
2023-03-22T13:17:23.437Z,9.69
2023-03-22T13:22:30.445Z,9.72
2023-03-22T13:27:37.937Z,9.71
2023-03-22T13:32:45.093Z,9.76
2023-03-22T13:37:49.324Z,9.75
2023-03-22T13:42:51.579Z,9.69
2023-03-22T13:48:28.337Z,9.78
2023-03-22T13:53:30.957Z,9.73
2023-03-22T13:58:53.130Z,9.82
2023-03-22T14:03:58.546Z,9.84
2023-03-22T14:09:13.376Z,9.91
2023-03-22T14:14:22.281Z,9.94
2023-03-22T14:19:27.986Z,9.91
